Koksijde, België

2:04 PM CET op 27 februari 2015 (GMT +0100)
Lesquin | Change Station
CLOSE
Current Station
Luchthaven
Location: Lille,
Geometrische hoogte: 154 ft
Nabije weerstations

Hoogte 154 ft 50.57 °N, 3.10 °E | Updated 4 minutes ago

Scattered Clouds
Licht bewolkt
45 °F
Voelt als 38 °F
N
13
Wind Variabel Wind van NW

Vandaag
Hoog -- | Laag -- °F
--% Kans op neerslag
Gisteren
Hoog -- | Laag -- °F
Precip. -- inches
7:39 AM 6:26 PM
Wassende maan, 68% visible
Druk 30.09 inches
Zicht 6.2 mijlen
Wolken Licht bewolkt 3500 ft
Gevoelstemperatuur 38 °F
Dauwpunt 32 °F
Vochtigheid 61%
Neerslag 0.00 inches
Dikte sneeuw Niet beschikbaar.
UV 2 van de 12
Pollen Niet beschikbaar.
Luchtkwaliteit Niet beschikbaar.
Flu Activity Niet beschikbaar.
METAR LFQQ 271300Z 31011KT 9999 SCT035 07/00 Q1019 NOSIG

More Conditions Fewer Conditions

Druk 30.09 inches
Zicht 6.2 mijlen
Wolken Licht bewolkt 3500 ft
Gevoelstemperatuur 38 °F
Dauwpunt 32 °F
Vochtigheid 61%
Neerslag 0.00 inches
Dikte sneeuw Niet beschikbaar.
UV 2 van de 12
Pollen Niet beschikbaar.
Luchtkwaliteit Niet beschikbaar.
Flu Activity Niet beschikbaar.
METAR LFQQ 271300Z 31011KT 9999 SCT035 07/00 Q1019 NOSIG

More Conditions Fewer Conditions

10-Day Weather Forecast

Almanac

Astronomie

Feb. 27, 2015 Opkomst Ondergang
Werkelijke tijd
Burgerlijke schemering
Nautische schemering
Astronomische schemering
Maan
Golflengte van het zichtbare licht
Daglengte
Tomorrow will be .
, % of the Moon is Illuminated

Extremen vandaag

Country Highs Country Lows

Community

WunderPhotos

Upload Photos

1,800,666 foto’s ge-upload!

WunderBlogs® & News

Nearby

Luchtkwaliteit

  Luchtkwaliteit LK-index Verontreinigende stof
Not available.

Dikte sneeuw

Station Depth Geometrische hoogte

Aardbevingen

Stad Distance Mag. Time & Date
Minimum magnitude displayed is 2.5.

Watertemperatuur langs de kust

Plaats Temperatuur

Nabije weerstations